sensor_id;sensor_type;location;lat;lon;timestamp;temperature;humidity
24232;DHT22;12364;47.810;8.810;2023-04-03T03:46:23;7.70;91.60
24232;DHT22;12364;47.810;8.810;2023-04-03T03:48:51;7.60;91.30
24232;DHT22;12364;47.810;8.810;2023-04-03T03:51:17;7.70;91.30
24232;DHT22;12364;47.810;8.810;2023-04-03T03:53:44;7.70;91.10
24232;DHT22;12364;47.810;8.810;2023-04-03T03:56:12;7.70;91.00
24232;DHT22;12364;47.810;8.810;2023-04-03T03:58:42;7.60;90.90
24232;DHT22;12364;47.810;8.810;2023-04-03T04:01:09;7.60;90.90
24232;DHT22;12364;47.810;8.810;2023-04-03T04:03:36;7.60;91.00
24232;DHT22;12364;47.810;8.810;2023-04-03T04:06:04;7.70;90.70
24232;DHT22;12364;47.810;8.810;2023-04-03T04:08:31;7.70;90.80
24232;DHT22;12364;47.810;8.810;2023-04-03T04:10:58;7.70;90.70
24232;DHT22;12364;47.810;8.810;2023-04-03T04:13:24;7.80;90.70
24232;DHT22;12364;47.810;8.810;2023-04-03T04:15:51;7.90;90.50
24232;DHT22;12364;47.810;8.810;2023-04-03T04:18:18;7.90;90.40
24232;DHT22;12364;47.810;8.810;2023-04-03T04:20:47;7.90;90.30
24232;DHT22;12364;47.810;8.810;2023-04-03T04:23:14;7.90;90.10
24232;DHT22;12364;47.810;8.810;2023-04-03T04:25:41;7.80;90.10
24232;DHT22;12364;47.810;8.810;2023-04-03T04:28:08;7.70;90.10
24232;DHT22;12364;47.810;8.810;2023-04-03T04:30:35;7.70;90.10
24232;DHT22;12364;47.810;8.810;2023-04-03T04:33:02;7.70;89.70
24232;DHT22;12364;47.810;8.810;2023-04-03T04:35:29;7.70;89.20
24232;DHT22;12364;47.810;8.810;2023-04-03T04:37:56;7.70;86.50
24232;DHT22;12364;47.810;8.810;2023-04-03T04:40:23;7.50;84.90
24232;DHT22;12364;47.810;8.810;2023-04-03T04:42:50;7.30;84.50
24232;DHT22;12364;47.810;8.810;2023-04-03T04:45:17;7.20;85.00
24232;DHT22;12364;47.810;8.810;2023-04-03T04:47:44;7.20;84.90
24232;DHT22;12364;47.810;8.810;2023-04-03T04:50:11;7.20;83.20
24232;DHT22;12364;47.810;8.810;2023-04-03T04:52:38;7.10;82.40
24232;DHT22;12364;47.810;8.810;2023-04-03T04:55:05;7.10;82.50
24232;DHT22;12364;47.810;8.810;2023-04-03T04:57:32;7.00;83.20
24232;DHT22;12364;47.810;8.810;2023-04-03T04:59:59;7.00;83.20
24232;DHT22;12364;47.810;8.810;2023-04-03T05:02:26;7.10;81.90
24232;DHT22;12364;47.810;8.810;2023-04-03T05:04:54;7.10;81.40
24232;DHT22;12364;47.810;8.810;2023-04-03T05:07:21;7.20;81.60
24232;DHT22;12364;47.810;8.810;2023-04-03T05:09:48;7.20;81.40
24232;DHT22;12364;47.810;8.810;2023-04-03T05:12:15;7.10;81.00
24232;DHT22;12364;47.810;8.810;2023-04-03T05:14:42;7.00;81.90
24232;DHT22;12364;47.810;8.810;2023-04-03T05:17:09;7.10;81.70
24232;DHT22;12364;47.810;8.810;2023-04-03T05:19:36;7.10;80.80
24232;DHT22;12364;47.810;8.810;2023-04-03T05:22:04;7.10;80.70
24232;DHT22;12364;47.810;8.810;2023-04-03T05:24:30;7.10;80.90
24232;DHT22;12364;47.810;8.810;2023-04-03T05:26:57;7.10;81.00
24232;DHT22;12364;47.810;8.810;2023-04-03T05:29:24;7.10;81.20
24232;DHT22;12364;47.810;8.810;2023-04-03T05:31:51;7.10;82.10
24232;DHT22;12364;47.810;8.810;2023-04-03T05:34:18;7.20;81.00
24232;DHT22;12364;47.810;8.810;2023-04-03T05:36:46;7.10;81.40
24232;DHT22;12364;47.810;8.810;2023-04-03T05:39:13;7.00;81.50
24232;DHT22;12364;47.810;8.810;2023-04-03T05:41:40;7.00;83.10
24232;DHT22;12364;47.810;8.810;2023-04-03T05:44:07;7.00;82.10
24232;DHT22;12364;47.810;8.810;2023-04-03T05:46:34;7.00;82.60
24232;DHT22;12364;47.810;8.810;2023-04-03T05:49:01;7.00;83.10
24232;DHT22;12364;47.810;8.810;2023-04-03T05:51:29;7.00;80.90
24232;DHT22;12364;47.810;8.810;2023-04-03T05:54:13;7.10;80.80
24232;DHT22;12364;47.810;8.810;2023-04-03T05:56:42;7.10;80.80
24232;DHT22;12364;47.810;8.810;2023-04-03T05:59:08;7.10;79.90
24232;DHT22;12364;47.810;8.810;2023-04-03T06:01:36;7.00;79.80
24232;DHT22;12364;47.810;8.810;2023-04-03T06:04:03;7.00;81.40
24232;DHT22;12364;47.810;8.810;2023-04-03T06:06:43;7.00;80.20
24232;DHT22;12364;47.810;8.810;2023-04-03T06:09:11;7.00;81.20
24232;DHT22;12364;47.810;8.810;2023-04-03T06:11:38;7.00;81.40
24232;DHT22;12364;47.810;8.810;2023-04-03T06:14:05;7.00;81.00
24232;DHT22;12364;47.810;8.810;2023-04-03T06:16:33;7.00;81.60
24232;DHT22;12364;47.810;8.810;2023-04-03T06:19:03;7.00;82.30
24232;DHT22;12364;47.810;8.810;2023-04-03T06:21:31;7.00;82.60
24232;DHT22;12364;47.810;8.810;2023-04-03T06:23:58;7.00;82.20
24232;DHT22;12364;47.810;8.810;2023-04-03T06:26:25;7.10;81.40
24232;DHT22;12364;47.810;8.810;2023-04-03T06:28:51;7.10;81.90
24232;DHT22;12364;47.810;8.810;2023-04-03T06:31:18;7.10;81.90
24232;DHT22;12364;47.810;8.810;2023-04-03T06:33:45;7.10;82.80
24232;DHT22;12364;47.810;8.810;2023-04-03T06:36:12;7.10;82.30
24232;DHT22;12364;47.810;8.810;2023-04-03T06:38:39;7.00;83.00
24232;DHT22;12364;47.810;8.810;2023-04-03T06:41:06;7.00;83.30
24232;DHT22;12364;47.810;8.810;2023-04-03T06:43:33;7.00;83.00
24232;DHT22;12364;47.810;8.810;2023-04-03T06:46:00;7.00;83.30
24232;DHT22;12364;47.810;8.810;2023-04-03T06:48:28;7.00;83.30
24232;DHT22;12364;47.810;8.810;2023-04-03T06:50:55;7.00;83.40
24232;DHT22;12364;47.810;8.810;2023-04-03T06:53:22;7.00;83.60
24232;DHT22;12364;47.810;8.810;2023-04-03T06:55:49;7.00;82.40
24232;DHT22;12364;47.810;8.810;2023-04-03T06:58:16;7.00;82.40
24232;DHT22;12364;47.810;8.810;2023-04-03T07:00:45;7.00;83.10
24232;DHT22;12364;47.810;8.810;2023-04-03T07:03:14;7.10;83.30
24232;DHT22;12364;47.810;8.810;2023-04-03T07:05:40;7.10;83.20
24232;DHT22;12364;47.810;8.810;2023-04-03T07:08:11;7.10;83.80
24232;DHT22;12364;47.810;8.810;2023-04-03T07:10:38;7.00;83.70
24232;DHT22;12364;47.810;8.810;2023-04-03T07:13:05;7.10;84.50
24232;DHT22;12364;47.810;8.810;2023-04-03T07:15:32;7.10;82.80
24232;DHT22;12364;47.810;8.810;2023-04-03T07:18:00;7.10;82.40
24232;DHT22;12364;47.810;8.810;2023-04-03T07:20:27;7.10;82.70
24232;DHT22;12364;47.810;8.810;2023-04-03T07:22:54;7.20;84.10
24232;DHT22;12364;47.810;8.810;2023-04-03T07:25:21;7.20;82.60
24232;DHT22;12364;47.810;8.810;2023-04-03T07:27:48;7.30;83.50
24232;DHT22;12364;47.810;8.810;2023-04-03T07:30:16;7.30;82.80
24232;DHT22;12364;47.810;8.810;2023-04-03T07:32:43;7.40;82.80
24232;DHT22;12364;47.810;8.810;2023-04-03T07:35:10;7.40;81.60
24232;DHT22;12364;47.810;8.810;2023-04-03T07:37:37;7.40;82.40
24232;DHT22;12364;47.810;8.810;2023-04-03T07:40:05;7.40;82.10
24232;DHT22;12364;47.810;8.810;2023-04-03T07:42:32;7.40;81.70
24232;DHT22;12364;47.810;8.810;2023-04-03T07:44:59;7.40;81.80
24232;DHT22;12364;47.810;8.810;2023-04-03T07:47:27;7.40;81.50
24232;DHT22;12364;47.810;8.810;2023-04-03T07:49:54;7.30;81.70
24232;DHT22;12364;47.810;8.810;2023-04-03T07:52:21;7.30;81.60
24232;DHT22;12364;47.810;8.810;2023-04-03T07:54:48;7.30;81.60
24232;DHT22;12364;47.810;8.810;2023-04-03T07:57:15;7.20;81.80
24232;DHT22;12364;47.810;8.810;2023-04-03T07:59:42;7.20;81.70
24232;DHT22;12364;47.810;8.810;2023-04-03T08:02:09;7.20;83.00
24232;DHT22;12364;47.810;8.810;2023-04-03T08:04:37;7.30;81.90
24232;DHT22;12364;47.810;8.810;2023-04-03T08:07:04;7.40;82.00
24232;DHT22;12364;47.810;8.810;2023-04-03T08:09:31;7.40;82.30
24232;DHT22;12364;47.810;8.810;2023-04-03T08:11:58;7.50;82.70
24232;DHT22;12364;47.810;8.810;2023-04-03T08:14:25;7.50;82.30
24232;DHT22;12364;47.810;8.810;2023-04-03T08:16:52;7.40;81.30
24232;DHT22;12364;47.810;8.810;2023-04-03T08:19:19;7.40;81.80
24232;DHT22;12364;47.810;8.810;2023-04-03T08:21:55;7.40;82.60
24232;DHT22;12364;47.810;8.810;2023-04-03T08:24:23;7.40;82.10
24232;DHT22;12364;47.810;8.810;2023-04-03T08:26:50;7.50;82.20
24232;DHT22;12364;47.810;8.810;2023-04-03T08:29:17;7.50;82.50
24232;DHT22;12364;47.810;8.810;2023-04-03T08:31:44;7.60;82.00
24232;DHT22;12364;47.810;8.810;2023-04-03T08:34:12;7.60;81.80
24232;DHT22;12364;47.810;8.810;2023-04-03T08:36:39;7.60;82.10
24232;DHT22;12364;47.810;8.810;2023-04-03T08:39:07;7.60;82.50
24232;DHT22;12364;47.810;8.810;2023-04-03T08:49:22;7.80;83.50
24232;DHT22;12364;47.810;8.810;2023-04-03T08:51:51;7.80;83.90
24232;DHT22;12364;47.810;8.810;2023-04-03T08:54:27;7.80;83.50
24232;DHT22;12364;47.810;8.810;2023-04-03T08:56:55;7.90;83.90
24232;DHT22;12364;47.810;8.810;2023-04-03T08:59:44;7.90;83.80
24232;DHT22;12364;47.810;8.810;2023-04-03T09:02:18;7.90;84.20
24232;DHT22;12364;47.810;8.810;2023-04-03T09:04:47;7.80;84.00
24232;DHT22;12364;47.810;8.810;2023-04-03T09:07:16;7.70;84.90
24232;DHT22;12364;47.810;8.810;2023-04-03T09:09:45;7.70;84.60
24232;DHT22;12364;47.810;8.810;2023-04-03T09:12:36;7.80;84.90
24232;DHT22;12364;47.810;8.810;2023-04-03T09:15:20;7.80;85.00
24232;DHT22;12364;47.810;8.810;2023-04-03T09:18:06;7.70;84.90
24232;DHT22;12364;47.810;8.810;2023-04-03T09:20:45;7.80;85.00
24232;DHT22;12364;47.810;8.810;2023-04-03T09:26:02;7.80;85.80
24232;DHT22;12364;47.810;8.810;2023-04-03T09:28:33;7.80;86.20
24232;DHT22;12364;47.810;8.810;2023-04-03T09:31:22;7.80;86.50
24232;DHT22;12364;47.810;8.810;2023-04-03T09:33:50;7.80;86.20
24232;DHT22;12364;47.810;8.810;2023-04-03T09:39:22;7.80;86.20
24232;DHT22;12364;47.810;8.810;2023-04-03T09:44:26;7.90;85.40
24232;DHT22;12364;47.810;8.810;2023-04-03T09:46:53;8.00;85.20
24232;DHT22;12364;47.810;8.810;2023-04-03T09:49:20;8.00;85.60
24232;DHT22;12364;47.810;8.810;2023-04-03T09:51:47;8.00;85.60
24232;DHT22;12364;47.810;8.810;2023-04-03T09:56:52;8.20;86.40
24232;DHT22;12364;47.810;8.810;2023-04-03T09:59:20;8.30;85.60
24232;DHT22;12364;47.810;8.810;2023-04-03T10:02:03;8.30;84.40
24232;DHT22;12364;47.810;8.810;2023-04-03T10:04:37;8.10;84.10
24232;DHT22;12364;47.810;8.810;2023-04-03T10:07:04;8.20;85.20
24232;DHT22;12364;47.810;8.810;2023-04-03T10:10:03;8.30;85.20
24232;DHT22;12364;47.810;8.810;2023-04-03T10:12:30;8.40;83.40
24232;DHT22;12364;47.810;8.810;2023-04-03T10:14:59;8.40;85.10
24232;DHT22;12364;47.810;8.810;2023-04-03T10:22:24;8.60;83.90
24232;DHT22;12364;47.810;8.810;2023-04-03T10:25:14;8.50;84.10
24232;DHT22;12364;47.810;8.810;2023-04-03T10:27:55;8.50;84.40
24232;DHT22;12364;47.810;8.810;2023-04-03T10:36:07;8.50;83.60
24232;DHT22;12364;47.810;8.810;2023-04-03T10:44:01;8.50;84.40
24232;DHT22;12364;47.810;8.810;2023-04-03T10:46:36;8.50;84.70
24232;DHT22;12364;47.810;8.810;2023-04-03T10:49:25;8.60;83.90
24232;DHT22;12364;47.810;8.810;2023-04-03T10:52:00;8.60;84.00
24232;DHT22;12364;47.810;8.810;2023-04-03T10:57:02;8.30;84.20
24232;DHT22;12364;47.810;8.810;2023-04-03T10:59:43;8.30;84.20
24232;DHT22;12364;47.810;8.810;2023-04-03T11:02:13;8.30;84.40
24232;DHT22;12364;47.810;8.810;2023-04-03T11:04:43;8.30;84.90
24232;DHT22;12364;47.810;8.810;2023-04-03T11:07:18;8.30;85.20
24232;DHT22;12364;47.810;8.810;2023-04-03T11:09:50;8.30;85.90
24232;DHT22;12364;47.810;8.810;2023-04-03T11:12:21;8.30;85.50
24232;DHT22;12364;47.810;8.810;2023-04-03T11:14:50;8.40;84.90
24232;DHT22;12364;47.810;8.810;2023-04-03T11:19:46;8.30;84.70
24232;DHT22;12364;47.810;8.810;2023-04-03T11:22:20;8.20;85.60
24232;DHT22;12364;47.810;8.810;2023-04-03T11:27:44;8.40;86.10
24232;DHT22;12364;47.810;8.810;2023-04-03T11:30:17;8.50;86.80
24232;DHT22;12364;47.810;8.810;2023-04-03T11:35:42;8.60;84.40
24232;DHT22;12364;47.810;8.810;2023-04-03T11:38:10;8.50;84.80
24232;DHT22;12364;47.810;8.810;2023-04-03T11:40:40;8.60;84.30
24232;DHT22;12364;47.810;8.810;2023-04-03T11:43:17;8.60;84.40
24232;DHT22;12364;47.810;8.810;2023-04-03T11:45:52;8.60;84.20
24232;DHT22;12364;47.810;8.810;2023-04-03T11:50:55;8.40;84.20
24232;DHT22;12364;47.810;8.810;2023-04-03T11:53:31;8.40;84.40
24232;DHT22;12364;47.810;8.810;2023-04-03T11:56:00;8.40;85.00
24232;DHT22;12364;47.810;8.810;2023-04-03T11:58:28;8.40;84.30
24232;DHT22;12364;47.810;8.810;2023-04-03T12:00:57;8.50;84.40
24232;DHT22;12364;47.810;8.810;2023-04-03T12:17:15;8.50;82.00
24232;DHT22;12364;47.810;8.810;2023-04-03T12:24:23;8.50;80.90
24232;DHT22;12364;47.810;8.810;2023-04-03T12:26:51;8.40;80.60
24232;DHT22;12364;47.810;8.810;2023-04-03T12:45:12;8.80;80.90
24232;DHT22;12364;47.810;8.810;2023-04-03T12:47:42;8.90;79.10
24232;DHT22;12364;47.810;8.810;2023-04-03T12:50:27;8.90;79.70
24232;DHT22;12364;47.810;8.810;2023-04-03T12:53:01;9.00;79.40
24232;DHT22;12364;47.810;8.810;2023-04-03T12:55:29;9.00;77.10
24232;DHT22;12364;47.810;8.810;2023-04-03T12:57:56;9.00;77.20
24232;DHT22;12364;47.810;8.810;2023-04-03T13:00:31;9.10;77.90
24232;DHT22;12364;47.810;8.810;2023-04-03T13:03:01;9.20;76.90
24232;DHT22;12364;47.810;8.810;2023-04-03T13:05:29;9.20;77.10
24232;DHT22;12364;47.810;8.810;2023-04-03T13:08:00;9.20;77.30
24232;DHT22;12364;47.810;8.810;2023-04-03T13:10:29;9.10;76.40
24232;DHT22;12364;47.810;8.810;2023-04-03T13:12:57;9.00;76.40
24232;DHT22;12364;47.810;8.810;2023-04-03T13:17:53;8.70;75.50
24232;DHT22;12364;47.810;8.810;2023-04-03T13:20:24;8.70;77.10
24232;DHT22;12364;47.810;8.810;2023-04-03T13:22:53;8.80;77.70
24232;DHT22;12364;47.810;8.810;2023-04-03T13:25:23;8.90;77.60
24232;DHT22;12364;47.810;8.810;2023-04-03T13:27:50;8.80;76.90
24232;DHT22;12364;47.810;8.810;2023-04-03T13:30:27;8.70;77.40
24232;DHT22;12364;47.810;8.810;2023-04-03T13:32:55;8.70;78.30
24232;DHT22;12364;47.810;8.810;2023-04-03T13:35:24;8.70;77.70
24232;DHT22;12364;47.810;8.810;2023-04-03T13:37:56;8.80;77.10
24232;DHT22;12364;47.810;8.810;2023-04-03T13:40:23;8.80;76.40
24232;DHT22;12364;47.810;8.810;2023-04-03T13:43:03;8.80;75.70
24232;DHT22;12364;47.810;8.810;2023-04-03T13:45:31;8.80;77.20
24232;DHT22;12364;47.810;8.810;2023-04-03T13:48:09;8.80;76.10
24232;DHT22;12364;47.810;8.810;2023-04-03T13:53:25;8.90;74.80
24232;DHT22;12364;47.810;8.810;2023-04-03T13:58:26;8.90;75.30
24232;DHT22;12364;47.810;8.810;2023-04-03T14:06:07;8.90;76.10
24232;DHT22;12364;47.810;8.810;2023-04-03T14:08:35;8.90;75.80
24232;DHT22;12364;47.810;8.810;2023-04-03T14:11:11;9.00;75.90
24232;DHT22;12364;47.810;8.810;2023-04-03T14:13:39;8.90;75.00
24232;DHT22;12364;47.810;8.810;2023-04-03T14:16:06;8.90;75.30
24232;DHT22;12364;47.810;8.810;2023-04-03T14:18:42;8.90;76.40
24232;DHT22;12364;47.810;8.810;2023-04-03T14:21:13;8.90;76.90
24232;DHT22;12364;47.810;8.810;2023-04-03T14:23:40;9.00;76.80
24232;DHT22;12364;47.810;8.810;2023-04-03T14:26:14;9.00;76.40
24232;DHT22;12364;47.810;8.810;2023-04-03T14:28:46;9.00;76.60
24232;DHT22;12364;47.810;8.810;2023-04-03T14:31:15;9.10;76.60
24232;DHT22;12364;47.810;8.810;2023-04-03T14:33:42;9.00;75.20
24232;DHT22;12364;47.810;8.810;2023-04-03T14:36:44;9.00;75.90
24232;DHT22;12364;47.810;8.810;2023-04-03T14:39:03;8.90;75.80
24232;DHT22;12364;47.810;8.810;2023-04-03T14:41:30;9.00;74.70
24232;DHT22;12364;47.810;8.810;2023-04-03T14:43:57;8.90;75.20
24232;DHT22;12364;47.810;8.810;2023-04-03T14:46:32;8.90;75.90
24232;DHT22;12364;47.810;8.810;2023-04-03T14:49:20;9.00;74.20
24232;DHT22;12364;47.810;8.810;2023-04-03T14:51:47;9.00;74.60
24232;DHT22;12364;47.810;8.810;2023-04-03T14:54:16;9.00;74.90
24232;DHT22;12364;47.810;8.810;2023-04-03T14:56:43;9.00;75.10
24232;DHT22;12364;47.810;8.810;2023-04-03T14:59:12;9.00;74.40
24232;DHT22;12364;47.810;8.810;2023-04-03T15:01:39;9.00;74.10
24232;DHT22;12364;47.810;8.810;2023-04-03T15:04:10;9.10;75.50
24232;DHT22;12364;47.810;8.810;2023-04-03T15:06:37;9.10;74.70
24232;DHT22;12364;47.810;8.810;2023-04-03T15:09:17;9.20;75.10
24232;DHT22;12364;47.810;8.810;2023-04-03T15:11:46;9.10;74.60
24232;DHT22;12364;47.810;8.810;2023-04-03T15:14:13;9.00;74.30
24232;DHT22;12364;47.810;8.810;2023-04-03T15:16:50;9.00;75.60
24232;DHT22;12364;47.810;8.810;2023-04-03T15:19:17;9.10;75.80
24232;DHT22;12364;47.810;8.810;2023-04-03T15:21:44;9.10;74.50
24232;DHT22;12364;47.810;8.810;2023-04-03T15:24:11;9.10;73.80
24232;DHT22;12364;47.810;8.810;2023-04-03T15:26:38;9.10;74.60
24232;DHT22;12364;47.810;8.810;2023-04-03T15:29:05;9.10;74.40
24232;DHT22;12364;47.810;8.810;2023-04-03T15:31:32;9.10;74.70
24232;DHT22;12364;47.810;8.810;2023-04-03T15:33:59;9.10;75.20
24232;DHT22;12364;47.810;8.810;2023-04-03T15:36:26;9.20;76.10
24232;DHT22;12364;47.810;8.810;2023-04-03T15:39:00;9.00;75.60
24232;DHT22;12364;47.810;8.810;2023-04-03T15:41:27;8.90;74.70
24232;DHT22;12364;47.810;8.810;2023-04-03T15:43:54;8.80;75.60
24232;DHT22;12364;47.810;8.810;2023-04-03T15:46:22;8.80;75.20
24232;DHT22;12364;47.810;8.810;2023-04-03T15:48:49;8.70;75.50
24232;DHT22;12364;47.810;8.810;2023-04-03T15:51:16;8.70;76.00
24232;DHT22;12364;47.810;8.810;2023-04-03T15:53:43;8.70;76.00
24232;DHT22;12364;47.810;8.810;2023-04-03T15:56:10;8.80;76.30
24232;DHT22;12364;47.810;8.810;2023-04-03T15:58:38;8.70;75.20
24232;DHT22;12364;47.810;8.810;2023-04-03T16:01:05;8.70;75.00
24232;DHT22;12364;47.810;8.810;2023-04-03T16:03:32;8.70;75.70
24232;DHT22;12364;47.810;8.810;2023-04-03T16:06:00;8.70;75.90
24232;DHT22;12364;47.810;8.810;2023-04-03T16:08:27;8.80;76.70
24232;DHT22;12364;47.810;8.810;2023-04-03T16:10:54;8.80;77.20
24232;DHT22;12364;47.810;8.810;2023-04-03T16:13:21;8.70;76.80
24232;DHT22;12364;47.810;8.810;2023-04-03T16:15:48;8.60;77.10
24232;DHT22;12364;47.810;8.810;2023-04-03T16:18:16;8.60;77.30
24232;DHT22;12364;47.810;8.810;2023-04-03T16:20:45;8.60;77.20
24232;DHT22;12364;47.810;8.810;2023-04-03T16:23:12;8.60;77.60
24232;DHT22;12364;47.810;8.810;2023-04-03T16:25:39;8.60;76.60
24232;DHT22;12364;47.810;8.810;2023-04-03T16:28:06;8.60;76.90
24232;DHT22;12364;47.810;8.810;2023-04-03T16:30:33;8.50;76.50
24232;DHT22;12364;47.810;8.810;2023-04-03T16:33:00;8.40;76.70
24232;DHT22;12364;47.810;8.810;2023-04-03T16:35:28;8.50;77.00
24232;DHT22;12364;47.810;8.810;2023-04-03T16:37:56;8.40;76.60
24232;DHT22;12364;47.810;8.810;2023-04-03T16:40:23;8.40;77.10
24232;DHT22;12364;47.810;8.810;2023-04-03T16:42:50;8.50;77.30
24232;DHT22;12364;47.810;8.810;2023-04-03T16:45:17;8.50;77.30
24232;DHT22;12364;47.810;8.810;2023-04-03T16:47:44;8.60;76.90
24232;DHT22;12364;47.810;8.810;2023-04-03T16:50:11;8.60;76.50
24232;DHT22;12364;47.810;8.810;2023-04-03T16:52:38;8.50;76.50
24232;DHT22;12364;47.810;8.810;2023-04-03T16:55:05;8.50;76.20
24232;DHT22;12364;47.810;8.810;2023-04-03T16:57:32;8.40;76.20
24232;DHT22;12364;47.810;8.810;2023-04-03T16:59:59;8.30;75.80
24232;DHT22;12364;47.810;8.810;2023-04-03T17:02:26;8.30;76.30
24232;DHT22;12364;47.810;8.810;2023-04-03T17:04:53;8.30;77.00
24232;DHT22;12364;47.810;8.810;2023-04-03T17:07:20;8.30;76.50
24232;DHT22;12364;47.810;8.810;2023-04-03T17:09:48;8.40;76.60
24232;DHT22;12364;47.810;8.810;2023-04-03T17:12:15;8.40;76.90
24232;DHT22;12364;47.810;8.810;2023-04-03T17:14:42;8.40;76.80
24232;DHT22;12364;47.810;8.810;2023-04-03T17:17:09;8.30;76.10
24232;DHT22;12364;47.810;8.810;2023-04-03T17:19:36;8.30;77.00
24232;DHT22;12364;47.810;8.810;2023-04-03T17:22:04;8.40;76.80
24232;DHT22;12364;47.810;8.810;2023-04-03T17:24:31;8.30;76.60
24232;DHT22;12364;47.810;8.810;2023-04-03T17:26:59;8.30;77.10
24232;DHT22;12364;47.810;8.810;2023-04-03T17:29:26;8.40;76.70
24232;DHT22;12364;47.810;8.810;2023-04-03T17:31:53;8.40;76.70
24232;DHT22;12364;47.810;8.810;2023-04-03T17:34:20;8.50;76.80
24232;DHT22;12364;47.810;8.810;2023-04-03T17:36:47;8.40;78.40
24232;DHT22;12364;47.810;8.810;2023-04-03T17:39:14;8.40;75.90
24232;DHT22;12364;47.810;8.810;2023-04-03T17:41:41;8.30;76.10
24232;DHT22;12364;47.810;8.810;2023-04-03T17:44:08;8.20;76.50
24232;DHT22;12364;47.810;8.810;2023-04-03T17:46:35;8.20;76.70
24232;DHT22;12364;47.810;8.810;2023-04-03T17:49:02;8.20;76.90
24232;DHT22;12364;47.810;8.810;2023-04-03T17:51:30;8.20;77.20
24232;DHT22;12364;47.810;8.810;2023-04-03T17:54:00;8.10;77.20
24232;DHT22;12364;47.810;8.810;2023-04-03T17:56:27;8.10;77.10
24232;DHT22;12364;47.810;8.810;2023-04-03T17:58:54;8.10;77.50
24232;DHT22;12364;47.810;8.810;2023-04-03T18:01:26;8.10;77.40
24232;DHT22;12364;47.810;8.810;2023-04-03T18:03:54;8.10;77.70
24232;DHT22;12364;47.810;8.810;2023-04-03T18:06:26;8.20;77.80
24232;DHT22;12364;47.810;8.810;2023-04-03T18:08:54;8.30;78.00
24232;DHT22;12364;47.810;8.810;2023-04-03T18:11:23;8.30;78.00
24232;DHT22;12364;47.810;8.810;2023-04-03T18:13:53;8.30;77.80
24232;DHT22;12364;47.810;8.810;2023-04-03T18:16:20;8.20;77.60
24232;DHT22;12364;47.810;8.810;2023-04-03T18:18:47;8.20;77.80
24232;DHT22;12364;47.810;8.810;2023-04-03T18:21:28;8.20;77.70
24232;DHT22;12364;47.810;8.810;2023-04-03T18:23:55;8.20;77.40
24232;DHT22;12364;47.810;8.810;2023-04-03T18:26:24;8.20;76.80
24232;DHT22;12364;47.810;8.810;2023-04-03T18:28:53;8.20;75.90
24232;DHT22;12364;47.810;8.810;2023-04-03T18:31:22;8.10;75.90
24232;DHT22;12364;47.810;8.810;2023-04-03T18:33:50;8.10;75.80
24232;DHT22;12364;47.810;8.810;2023-04-03T18:36:20;8.20;75.40
24232;DHT22;12364;47.810;8.810;2023-04-03T18:38:47;8.00;75.00
24232;DHT22;12364;47.810;8.810;2023-04-03T18:41:14;8.00;75.30
24232;DHT22;12364;47.810;8.810;2023-04-03T18:43:42;8.00;75.20
24232;DHT22;12364;47.810;8.810;2023-04-03T18:46:09;8.00;75.40
24232;DHT22;12364;47.810;8.810;2023-04-03T18:48:36;7.90;74.40
24232;DHT22;12364;47.810;8.810;2023-04-03T18:51:08;7.90;74.80
24232;DHT22;12364;47.810;8.810;2023-04-03T18:53:35;7.80;75.10
24232;DHT22;12364;47.810;8.810;2023-04-03T18:56:02;7.80;74.90
24232;DHT22;12364;47.810;8.810;2023-04-03T18:58:29;7.80;75.10
24232;DHT22;12364;47.810;8.810;2023-04-03T19:00:57;7.80;75.20
24232;DHT22;12364;47.810;8.810;2023-04-03T19:03:24;7.80;75.30
24232;DHT22;12364;47.810;8.810;2023-04-03T19:05:51;7.80;75.60
24232;DHT22;12364;47.810;8.810;2023-04-03T19:08:18;7.80;75.50
24232;DHT22;12364;47.810;8.810;2023-04-03T19:10:45;7.80;75.20
24232;DHT22;12364;47.810;8.810;2023-04-03T19:13:12;7.80;75.10
24232;DHT22;12364;47.810;8.810;2023-04-03T19:15:39;7.80;75.00
24232;DHT22;12364;47.810;8.810;2023-04-03T19:18:06;7.70;75.10
24232;DHT22;12364;47.810;8.810;2023-04-03T19:20:33;7.70;75.20
24232;DHT22;12364;47.810;8.810;2023-04-03T19:23:01;7.70;75.20
24232;DHT22;12364;47.810;8.810;2023-04-03T19:25:28;7.70;74.50
24232;DHT22;12364;47.810;8.810;2023-04-03T19:27:55;7.70;74.60
24232;DHT22;12364;47.810;8.810;2023-04-03T19:30:22;7.70;74.60
24232;DHT22;12364;47.810;8.810;2023-04-03T19:32:50;7.50;74.10
24232;DHT22;12364;47.810;8.810;2023-04-03T19:35:17;7.50;74.50
24232;DHT22;12364;47.810;8.810;2023-04-03T19:37:44;7.50;74.60
24232;DHT22;12364;47.810;8.810;2023-04-03T19:40:16;7.50;74.20
24232;DHT22;12364;47.810;8.810;2023-04-03T19:42:43;7.50;74.10
24232;DHT22;12364;47.810;8.810;2023-04-03T19:45:10;7.50;73.90
24232;DHT22;12364;47.810;8.810;2023-04-03T19:47:38;7.50;73.90
24232;DHT22;12364;47.810;8.810;2023-04-03T19:50:05;7.50;74.00
24232;DHT22;12364;47.810;8.810;2023-04-03T19:52:32;7.50;73.40
24232;DHT22;12364;47.810;8.810;2023-04-03T19:54:59;7.50;74.00
24232;DHT22;12364;47.810;8.810;2023-04-03T19:57:26;7.50;73.50
24232;DHT22;12364;47.810;8.810;2023-04-03T19:59:53;7.50;73.50
24232;DHT22;12364;47.810;8.810;2023-04-03T20:02:20;7.50;72.90
24232;DHT22;12364;47.810;8.810;2023-04-03T20:04:47;7.50;73.10
24232;DHT22;12364;47.810;8.810;2023-04-03T20:07:14;7.50;73.50
24232;DHT22;12364;47.810;8.810;2023-04-03T20:09:41;7.50;73.50
24232;DHT22;12364;47.810;8.810;2023-04-03T20:12:09;7.50;73.00
24232;DHT22;12364;47.810;8.810;2023-04-03T20:14:36;7.50;73.00
24232;DHT22;12364;47.810;8.810;2023-04-03T20:17:05;7.50;73.30
24232;DHT22;12364;47.810;8.810;2023-04-03T20:19:32;7.50;73.20
24232;DHT22;12364;47.810;8.810;2023-04-03T20:21:59;7.50;72.90
24232;DHT22;12364;47.810;8.810;2023-04-03T20:24:26;7.40;72.90
24232;DHT22;12364;47.810;8.810;2023-04-03T20:26:54;7.40;72.90
24232;DHT22;12364;47.810;8.810;2023-04-03T20:29:24;7.30;72.60
24232;DHT22;12364;47.810;8.810;2023-04-03T20:31:51;7.30;72.30
24232;DHT22;12364;47.810;8.810;2023-04-03T20:34:21;7.20;72.70
24232;DHT22;12364;47.810;8.810;2023-04-03T20:36:48;7.20;72.80
24232;DHT22;12364;47.810;8.810;2023-04-03T20:39:16;7.20;73.00
24232;DHT22;12364;47.810;8.810;2023-04-03T20:41:44;7.20;72.20
24232;DHT22;12364;47.810;8.810;2023-04-03T20:44:12;7.20;72.30
24232;DHT22;12364;47.810;8.810;2023-04-03T20:46:38;7.20;72.40
24232;DHT22;12364;47.810;8.810;2023-04-03T20:49:19;7.20;72.10
24232;DHT22;12364;47.810;8.810;2023-04-03T20:51:47;7.20;72.10
24232;DHT22;12364;47.810;8.810;2023-04-03T20:54:14;7.20;72.30
24232;DHT22;12364;47.810;8.810;2023-04-03T20:56:41;7.20;71.90
24232;DHT22;12364;47.810;8.810;2023-04-03T20:59:08;7.20;72.10
24232;DHT22;12364;47.810;8.810;2023-04-03T21:01:36;7.20;72.20
24232;DHT22;12364;47.810;8.810;2023-04-03T21:04:06;7.20;71.90
24232;DHT22;12364;47.810;8.810;2023-04-03T21:20:26;6.90;72.50
24232;DHT22;12364;47.810;8.810;2023-04-03T21:22:53;6.80;72.30
24232;DHT22;12364;47.810;8.810;2023-04-03T21:25:20;6.90;72.50
24232;DHT22;12364;47.810;8.810;2023-04-03T21:27:47;6.90;72.50
24232;DHT22;12364;47.810;8.810;2023-04-03T21:30:14;6.90;72.90